sensor_id;sensor_type;location;lat;lon;timestamp;P1;durP1;ratioP1;P2;durP2;ratioP2
16977;SDS011;8605;52.548;4.918;2024-01-30T00:02:17;54.70;;;31.20;;
16977;SDS011;8605;52.548;4.918;2024-01-30T00:04:45;56.00;;;31.83;;
16977;SDS011;8605;52.548;4.918;2024-01-30T00:07:13;61.83;;;33.20;;
16977;SDS011;8605;52.548;4.918;2024-01-30T00:09:41;61.73;;;31.73;;
16977;SDS011;8605;52.548;4.918;2024-01-30T00:12:08;58.90;;;32.83;;
16977;SDS011;8605;52.548;4.918;2024-01-30T00:14:36;59.83;;;32.77;;
16977;SDS011;8605;52.548;4.918;2024-01-30T00:17:06;51.87;;;30.87;;
16977;SDS011;8605;52.548;4.918;2024-01-30T00:19:33;57.83;;;31.83;;
16977;SDS011;8605;52.548;4.918;2024-01-30T00:22:01;55.00;;;31.83;;
16977;SDS011;8605;52.548;4.918;2024-01-30T00:24:29;54.87;;;30.80;;
16977;SDS011;8605;52.548;4.918;2024-01-30T00:26:57;57.17;;;32.37;;
16977;SDS011;8605;52.548;4.918;2024-01-30T00:29:25;59.03;;;32.57;;
16977;SDS011;8605;52.548;4.918;2024-01-30T00:31:56;57.07;;;32.97;;
16977;SDS011;8605;52.548;4.918;2024-01-30T00:34:25;53.40;;;31.67;;
16977;SDS011;8605;52.548;4.918;2024-01-30T00:36:53;58.87;;;33.73;;
16977;SDS011;8605;52.548;4.918;2024-01-30T00:39:21;52.97;;;30.63;;
16977;SDS011;8605;52.548;4.918;2024-01-30T00:41:49;52.13;;;30.80;;
16977;SDS011;8605;52.548;4.918;2024-01-30T00:44:17;52.53;;;31.37;;
16977;SDS011;8605;52.548;4.918;2024-01-30T00:46:46;58.83;;;32.50;;
16977;SDS011;8605;52.548;4.918;2024-01-30T00:49:14;54.97;;;32.37;;
16977;SDS011;8605;52.548;4.918;2024-01-30T00:51:43;55.43;;;31.33;;
16977;SDS011;8605;52.548;4.918;2024-01-30T00:54:11;54.83;;;32.57;;
16977;SDS011;8605;52.548;4.918;2024-01-30T00:56:39;57.50;;;32.53;;
16977;SDS011;8605;52.548;4.918;2024-01-30T00:59:07;54.30;;;32.40;;
16977;SDS011;8605;52.548;4.918;2024-01-30T01:01:34;57.13;;;31.17;;
16977;SDS011;8605;52.548;4.918;2024-01-30T01:04:03;54.17;;;32.97;;
16977;SDS011;8605;52.548;4.918;2024-01-30T01:06:31;54.47;;;31.97;;
16977;SDS011;8605;52.548;4.918;2024-01-30T01:09:02;60.07;;;33.67;;
16977;SDS011;8605;52.548;4.918;2024-01-30T01:11:31;52.23;;;32.53;;
16977;SDS011;8605;52.548;4.918;2024-01-30T01:14:01;46.43;;;29.37;;
16977;SDS011;8605;52.548;4.918;2024-01-30T01:16:29;58.37;;;32.90;;
16977;SDS011;8605;52.548;4.918;2024-01-30T01:18:57;48.13;;;30.33;;
16977;SDS011;8605;52.548;4.918;2024-01-30T01:21:26;57.47;;;32.80;;
16977;SDS011;8605;52.548;4.918;2024-01-30T01:23:54;59.80;;;32.60;;
16977;SDS011;8605;52.548;4.918;2024-01-30T01:26:24;58.23;;;33.47;;
16977;SDS011;8605;52.548;4.918;2024-01-30T01:28:51;57.30;;;31.50;;
16977;SDS011;8605;52.548;4.918;2024-01-30T01:31:19;48.80;;;29.93;;
16977;SDS011;8605;52.548;4.918;2024-01-30T01:33:51;49.43;;;29.80;;
16977;SDS011;8605;52.548;4.918;2024-01-30T01:36:19;49.30;;;31.50;;
16977;SDS011;8605;52.548;4.918;2024-01-30T01:38:46;45.07;;;30.33;;
16977;SDS011;8605;52.548;4.918;2024-01-30T01:41:14;47.37;;;29.57;;
16977;SDS011;8605;52.548;4.918;2024-01-30T01:43:43;52.63;;;30.57;;
16977;SDS011;8605;52.548;4.918;2024-01-30T01:46:12;54.67;;;32.27;;
16977;SDS011;8605;52.548;4.918;2024-01-30T01:48:40;47.90;;;31.20;;
16977;SDS011;8605;52.548;4.918;2024-01-30T01:51:09;47.20;;;30.80;;
16977;SDS011;8605;52.548;4.918;2024-01-30T01:53:37;49.27;;;30.00;;
16977;SDS011;8605;52.548;4.918;2024-01-30T01:56:06;49.10;;;32.10;;
16977;SDS011;8605;52.548;4.918;2024-01-30T01:58:34;51.00;;;30.97;;
16977;SDS011;8605;52.548;4.918;2024-01-30T02:01:05;58.37;;;31.33;;
16977;SDS011;8605;52.548;4.918;2024-01-30T02:03:35;52.27;;;29.70;;
16977;SDS011;8605;52.548;4.918;2024-01-30T02:06:03;45.97;;;29.30;;
16977;SDS011;8605;52.548;4.918;2024-01-30T02:08:31;48.47;;;29.07;;
16977;SDS011;8605;52.548;4.918;2024-01-30T02:10:59;50.40;;;28.90;;
16977;SDS011;8605;52.548;4.918;2024-01-30T02:13:27;42.77;;;27.30;;
16977;SDS011;8605;52.548;4.918;2024-01-30T02:15:55;41.80;;;26.90;;
16977;SDS011;8605;52.548;4.918;2024-01-30T02:18:24;44.50;;;27.23;;
16977;SDS011;8605;52.548;4.918;2024-01-30T02:20:53;46.00;;;27.57;;
16977;SDS011;8605;52.548;4.918;2024-01-30T02:23:22;49.17;;;28.67;;
16977;SDS011;8605;52.548;4.918;2024-01-30T02:25:51;47.43;;;28.97;;
16977;SDS011;8605;52.548;4.918;2024-01-30T02:28:19;46.60;;;27.77;;
16977;SDS011;8605;52.548;4.918;2024-01-30T02:30:47;43.63;;;27.83;;
16977;SDS011;8605;52.548;4.918;2024-01-30T02:33:15;47.37;;;28.13;;
16977;SDS011;8605;52.548;4.918;2024-01-30T02:35:43;47.40;;;27.77;;
16977;SDS011;8605;52.548;4.918;2024-01-30T02:38:11;43.13;;;26.57;;
16977;SDS011;8605;52.548;4.918;2024-01-30T02:40:40;44.10;;;27.10;;
16977;SDS011;8605;52.548;4.918;2024-01-30T02:43:08;47.13;;;26.80;;
16977;SDS011;8605;52.548;4.918;2024-01-30T02:45:35;47.93;;;26.40;;
16977;SDS011;8605;52.548;4.918;2024-01-30T02:48:03;43.60;;;26.77;;
16977;SDS011;8605;52.548;4.918;2024-01-30T02:50:32;46.97;;;26.97;;
16977;SDS011;8605;52.548;4.918;2024-01-30T02:53:01;46.33;;;27.07;;
16977;SDS011;8605;52.548;4.918;2024-01-30T02:55:30;42.37;;;26.43;;
16977;SDS011;8605;52.548;4.918;2024-01-30T02:57:59;47.37;;;27.17;;
16977;SDS011;8605;52.548;4.918;2024-01-30T03:00:27;44.87;;;27.67;;
16977;SDS011;8605;52.548;4.918;2024-01-30T03:02:54;41.40;;;25.03;;
16977;SDS011;8605;52.548;4.918;2024-01-30T03:05:22;41.17;;;25.83;;
16977;SDS011;8605;52.548;4.918;2024-01-30T03:07:50;39.67;;;25.10;;
16977;SDS011;8605;52.548;4.918;2024-01-30T03:10:18;48.30;;;25.80;;
16977;SDS011;8605;52.548;4.918;2024-01-30T03:12:46;42.43;;;25.77;;
16977;SDS011;8605;52.548;4.918;2024-01-30T03:15:15;41.37;;;25.50;;
16977;SDS011;8605;52.548;4.918;2024-01-30T03:17:43;44.20;;;26.50;;
16977;SDS011;8605;52.548;4.918;2024-01-30T03:20:11;39.70;;;24.60;;
16977;SDS011;8605;52.548;4.918;2024-01-30T03:22:39;39.53;;;25.73;;
16977;SDS011;8605;52.548;4.918;2024-01-30T03:25:07;42.83;;;24.53;;
16977;SDS011;8605;52.548;4.918;2024-01-30T03:27:38;38.27;;;24.47;;
16977;SDS011;8605;52.548;4.918;2024-01-30T03:30:06;40.43;;;25.20;;
16977;SDS011;8605;52.548;4.918;2024-01-30T03:32:36;41.83;;;24.33;;
16977;SDS011;8605;52.548;4.918;2024-01-30T03:35:04;38.47;;;24.23;;
16977;SDS011;8605;52.548;4.918;2024-01-30T03:37:32;39.65;;;24.73;;
16977;SDS011;8605;52.548;4.918;2024-01-30T03:40:04;40.33;;;24.33;;
16977;SDS011;8605;52.548;4.918;2024-01-30T03:42:32;38.60;;;23.30;;
16977;SDS011;8605;52.548;4.918;2024-01-30T03:45:01;44.95;;;24.50;;
16977;SDS011;8605;52.548;4.918;2024-01-30T03:47:29;41.30;;;24.10;;
16977;SDS011;8605;52.548;4.918;2024-01-30T03:49:58;39.67;;;24.03;;
16977;SDS011;8605;52.548;4.918;2024-01-30T03:52:25;41.87;;;25.00;;
16977;SDS011;8605;52.548;4.918;2024-01-30T03:54:53;40.60;;;24.23;;
16977;SDS011;8605;52.548;4.918;2024-01-30T03:57:21;39.30;;;23.47;;
16977;SDS011;8605;52.548;4.918;2024-01-30T03:59:49;39.00;;;23.27;;
16977;SDS011;8605;52.548;4.918;2024-01-30T04:02:16;38.33;;;24.20;;
16977;SDS011;8605;52.548;4.918;2024-01-30T04:04:48;42.57;;;24.53;;
16977;SDS011;8605;52.548;4.918;2024-01-30T04:07:17;36.90;;;23.50;;
16977;SDS011;8605;52.548;4.918;2024-01-30T04:09:49;39.87;;;24.10;;
16977;SDS011;8605;52.548;4.918;2024-01-30T04:12:17;40.47;;;23.90;;
16977;SDS011;8605;52.548;4.918;2024-01-30T04:14:44;41.47;;;24.27;;
16977;SDS011;8605;52.548;4.918;2024-01-30T04:17:12;43.77;;;24.63;;
16977;SDS011;8605;52.548;4.918;2024-01-30T04:19:40;42.03;;;24.30;;
16977;SDS011;8605;52.548;4.918;2024-01-30T04:22:08;36.93;;;23.70;;
16977;SDS011;8605;52.548;4.918;2024-01-30T04:24:37;40.90;;;23.63;;
16977;SDS011;8605;52.548;4.918;2024-01-30T04:27:05;41.63;;;23.90;;
16977;SDS011;8605;52.548;4.918;2024-01-30T04:29:33;39.43;;;23.93;;
16977;SDS011;8605;52.548;4.918;2024-01-30T04:32:01;39.03;;;23.47;;
16977;SDS011;8605;52.548;4.918;2024-01-30T04:34:29;40.30;;;24.03;;
16977;SDS011;8605;52.548;4.918;2024-01-30T04:36:57;40.43;;;25.00;;
16977;SDS011;8605;52.548;4.918;2024-01-30T04:39:25;35.03;;;23.33;;
16977;SDS011;8605;52.548;4.918;2024-01-30T04:41:55;38.03;;;23.00;;
16977;SDS011;8605;52.548;4.918;2024-01-30T04:44:22;41.60;;;24.30;;
16977;SDS011;8605;52.548;4.918;2024-01-30T04:46:50;40.73;;;23.50;;
16977;SDS011;8605;52.548;4.918;2024-01-30T04:49:18;37.13;;;23.47;;
16977;SDS011;8605;52.548;4.918;2024-01-30T04:51:46;40.67;;;23.20;;
16977;SDS011;8605;52.548;4.918;2024-01-30T04:54:14;37.00;;;23.50;;
16977;SDS011;8605;52.548;4.918;2024-01-30T04:56:41;39.37;;;24.20;;
16977;SDS011;8605;52.548;4.918;2024-01-30T04:59:10;38.27;;;24.03;;
16977;SDS011;8605;52.548;4.918;2024-01-30T05:01:39;39.33;;;23.07;;
16977;SDS011;8605;52.548;4.918;2024-01-30T05:04:07;37.37;;;23.60;;
16977;SDS011;8605;52.548;4.918;2024-01-30T05:06:37;39.53;;;22.70;;
16977;SDS011;8605;52.548;4.918;2024-01-30T05:09:05;34.17;;;22.37;;
16977;SDS011;8605;52.548;4.918;2024-01-30T05:11:36;34.97;;;23.00;;
16977;SDS011;8605;52.548;4.918;2024-01-30T05:14:04;34.73;;;21.00;;
16977;SDS011;8605;52.548;4.918;2024-01-30T05:16:33;33.93;;;22.53;;
16977;SDS011;8605;52.548;4.918;2024-01-30T05:19:01;36.57;;;21.97;;
16977;SDS011;8605;52.548;4.918;2024-01-30T05:21:29;36.27;;;23.07;;
16977;SDS011;8605;52.548;4.918;2024-01-30T05:23:57;35.93;;;22.83;;
16977;SDS011;8605;52.548;4.918;2024-01-30T05:26:25;37.30;;;22.47;;
16977;SDS011;8605;52.548;4.918;2024-01-30T05:28:53;39.47;;;23.83;;
16977;SDS011;8605;52.548;4.918;2024-01-30T05:31:20;41.33;;;23.27;;
16977;SDS011;8605;52.548;4.918;2024-01-30T05:33:50;36.70;;;22.43;;
16977;SDS011;8605;52.548;4.918;2024-01-30T05:36:18;37.63;;;23.83;;
16977;SDS011;8605;52.548;4.918;2024-01-30T05:38:45;39.77;;;23.70;;
16977;SDS011;8605;52.548;4.918;2024-01-30T05:41:13;36.77;;;23.23;;
16977;SDS011;8605;52.548;4.918;2024-01-30T05:43:42;36.50;;;23.07;;
16977;SDS011;8605;52.548;4.918;2024-01-30T05:46:10;35.63;;;22.93;;
16977;SDS011;8605;52.548;4.918;2024-01-30T05:48:37;36.23;;;22.87;;
16977;SDS011;8605;52.548;4.918;2024-01-30T05:51:07;39.57;;;23.60;;
16977;SDS011;8605;52.548;4.918;2024-01-30T05:53:35;44.93;;;23.53;;
16977;SDS011;8605;52.548;4.918;2024-01-30T05:56:03;40.87;;;23.00;;
16977;SDS011;8605;52.548;4.918;2024-01-30T05:58:32;40.17;;;23.40;;
16977;SDS011;8605;52.548;4.918;2024-01-30T06:01:00;39.03;;;22.90;;
16977;SDS011;8605;52.548;4.918;2024-01-30T06:03:28;35.77;;;22.17;;
16977;SDS011;8605;52.548;4.918;2024-01-30T06:05:55;37.53;;;23.67;;
16977;SDS011;8605;52.548;4.918;2024-01-30T06:08:25;40.57;;;22.37;;
16977;SDS011;8605;52.548;4.918;2024-01-30T06:10:53;33.97;;;22.50;;
16977;SDS011;8605;52.548;4.918;2024-01-30T06:13:20;34.47;;;22.47;;
16977;SDS011;8605;52.548;4.918;2024-01-30T06:15:48;40.83;;;22.92;;
16977;SDS011;8605;52.548;4.918;2024-01-30T06:18:16;40.30;;;22.90;;
16977;SDS011;8605;52.548;4.918;2024-01-30T06:20:44;41.17;;;22.87;;
16977;SDS011;8605;52.548;4.918;2024-01-30T06:23:12;35.33;;;21.87;;
16977;SDS011;8605;52.548;4.918;2024-01-30T06:25:42;39.40;;;22.60;;
16977;SDS011;8605;52.548;4.918;2024-01-30T06:28:09;35.83;;;22.10;;
16977;SDS011;8605;52.548;4.918;2024-01-30T06:30:37;34.80;;;21.17;;
16977;SDS011;8605;52.548;4.918;2024-01-30T06:33:05;37.40;;;22.40;;
16977;SDS011;8605;52.548;4.918;2024-01-30T06:35:33;39.30;;;22.50;;
16977;SDS011;8605;52.548;4.918;2024-01-30T06:38:10;41.77;;;23.17;;
16977;SDS011;8605;52.548;4.918;2024-01-30T06:40:37;36.17;;;22.43;;
16977;SDS011;8605;52.548;4.918;2024-01-30T06:43:07;37.17;;;21.97;;
16977;SDS011;8605;52.548;4.918;2024-01-30T06:45:35;36.93;;;21.53;;
16977;SDS011;8605;52.548;4.918;2024-01-30T06:48:04;38.47;;;21.70;;
16977;SDS011;8605;52.548;4.918;2024-01-30T06:50:32;40.20;;;22.93;;
16977;SDS011;8605;52.548;4.918;2024-01-30T06:53:00;37.53;;;22.23;;
16977;SDS011;8605;52.548;4.918;2024-01-30T06:55:28;37.20;;;22.23;;
16977;SDS011;8605;52.548;4.918;2024-01-30T06:57:56;37.80;;;21.77;;
16977;SDS011;8605;52.548;4.918;2024-01-30T07:00:25;35.13;;;22.30;;
16977;SDS011;8605;52.548;4.918;2024-01-30T07:02:53;39.90;;;22.57;;
16977;SDS011;8605;52.548;4.918;2024-01-30T07:05:20;32.50;;;21.73;;
16977;SDS011;8605;52.548;4.918;2024-01-30T07:07:49;38.60;;;21.93;;
16977;SDS011;8605;52.548;4.918;2024-01-30T07:10:17;43.17;;;22.60;;
16977;SDS011;8605;52.548;4.918;2024-01-30T07:12:45;37.07;;;22.07;;
16977;SDS011;8605;52.548;4.918;2024-01-30T07:15:13;36.83;;;22.40;;
16977;SDS011;8605;52.548;4.918;2024-01-30T07:17:44;38.47;;;21.80;;
16977;SDS011;8605;52.548;4.918;2024-01-30T07:20:12;41.10;;;21.83;;
16977;SDS011;8605;52.548;4.918;2024-01-30T07:22:43;36.97;;;21.23;;
16977;SDS011;8605;52.548;4.918;2024-01-30T07:25:11;44.53;;;22.07;;
16977;SDS011;8605;52.548;4.918;2024-01-30T07:27:39;38.77;;;21.90;;
16977;SDS011;8605;52.548;4.918;2024-01-30T07:30:07;43.90;;;21.33;;
16977;SDS011;8605;52.548;4.918;2024-01-30T07:32:35;36.13;;;21.33;;
16977;SDS011;8605;52.548;4.918;2024-01-30T07:35:05;41.78;;;20.50;;
16977;SDS011;8605;52.548;4.918;2024-01-30T07:37:35;37.22;;;20.13;;
16977;SDS011;8605;52.548;4.918;2024-01-30T07:40:03;34.58;;;20.55;;
16977;SDS011;8605;52.548;4.918;2024-01-30T07:42:33;39.33;;;20.10;;
16977;SDS011;8605;52.548;4.918;2024-01-30T07:45:04;43.35;;;20.67;;
16977;SDS011;8605;52.548;4.918;2024-01-30T07:47:32;34.30;;;19.20;;
16977;SDS011;8605;52.548;4.918;2024-01-30T07:50:02;40.47;;;20.17;;
16977;SDS011;8605;52.548;4.918;2024-01-30T07:52:32;36.70;;;19.75;;
16977;SDS011;8605;52.548;4.918;2024-01-30T07:55:00;32.70;;;19.83;;
16977;SDS011;8605;52.548;4.918;2024-01-30T07:57:30;37.72;;;19.42;;
16977;SDS011;8605;52.548;4.918;2024-01-30T07:59:58;37.15;;;20.17;;
16977;SDS011;8605;52.548;4.918;2024-01-30T08:02:26;37.22;;;20.27;;
16977;SDS011;8605;52.548;4.918;2024-01-30T08:04:54;34.25;;;20.05;;
16977;SDS011;8605;52.548;4.918;2024-01-30T08:07:22;35.00;;;19.33;;
16977;SDS011;8605;52.548;4.918;2024-01-30T08:09:52;33.25;;;19.13;;
16977;SDS011;8605;52.548;4.918;2024-01-30T08:12:20;37.53;;;19.65;;
16977;SDS011;8605;52.548;4.918;2024-01-30T08:14:48;33.53;;;19.23;;
16977;SDS011;8605;52.548;4.918;2024-01-30T08:17:15;31.50;;;19.13;;
16977;SDS011;8605;52.548;4.918;2024-01-30T08:19:43;36.63;;;20.13;;
16977;SDS011;8605;52.548;4.918;2024-01-30T08:22:11;35.65;;;20.13;;
16977;SDS011;8605;52.548;4.918;2024-01-30T08:24:40;32.42;;;19.98;;
16977;SDS011;8605;52.548;4.918;2024-01-30T08:27:10;38.63;;;19.52;;
16977;SDS011;8605;52.548;4.918;2024-01-30T08:29:38;38.45;;;20.10;;
16977;SDS011;8605;52.548;4.918;2024-01-30T08:32:06;37.28;;;20.27;;
16977;SDS011;8605;52.548;4.918;2024-01-30T08:34:34;31.65;;;19.02;;
16977;SDS011;8605;52.548;4.918;2024-01-30T08:37:02;38.07;;;19.87;;
16977;SDS011;8605;52.548;4.918;2024-01-30T08:39:30;30.77;;;18.33;;
16977;SDS011;8605;52.548;4.918;2024-01-30T08:41:59;29.55;;;18.52;;
16977;SDS011;8605;52.548;4.918;2024-01-30T08:44:28;34.97;;;18.45;;
16977;SDS011;8605;52.548;4.918;2024-01-30T08:46:56;36.22;;;18.83;;
16977;SDS011;8605;52.548;4.918;2024-01-30T08:49:25;36.60;;;18.60;;
16977;SDS011;8605;52.548;4.918;2024-01-30T08:51:53;33.92;;;18.42;;
16977;SDS011;8605;52.548;4.918;2024-01-30T08:54:21;32.78;;;18.48;;
16977;SDS011;8605;52.548;4.918;2024-01-30T08:56:49;33.50;;;18.17;;
16977;SDS011;8605;52.548;4.918;2024-01-30T08:59:18;37.95;;;16.10;;
16977;SDS011;8605;52.548;4.918;2024-01-30T09:01:47;35.75;;;15.93;;
16977;SDS011;8605;52.548;4.918;2024-01-30T09:04:29;39.88;;;13.75;;
16977;SDS011;8605;52.548;4.918;2024-01-30T09:06:57;41.38;;;12.15;;
16977;SDS011;8605;52.548;4.918;2024-01-30T09:09:25;31.67;;;10.88;;
16977;SDS011;8605;52.548;4.918;2024-01-30T09:11:52;28.08;;;8.68;;
16977;SDS011;8605;52.548;4.918;2024-01-30T09:14:20;33.08;;;7.95;;
16977;SDS011;8605;52.548;4.918;2024-01-30T09:16:49;30.80;;;7.75;;
16977;SDS011;8605;52.548;4.918;2024-01-30T09:19:17;34.15;;;7.40;;
16977;SDS011;8605;52.548;4.918;2024-01-30T09:21:45;33.97;;;8.45;;
16977;SDS011;8605;52.548;4.918;2024-01-30T09:24:13;36.63;;;8.05;;
16977;SDS011;8605;52.548;4.918;2024-01-30T09:26:41;34.50;;;9.05;;
16977;SDS011;8605;52.548;4.918;2024-01-30T09:29:08;32.70;;;8.85;;
16977;SDS011;8605;52.548;4.918;2024-01-30T09:31:36;33.97;;;7.63;;
16977;SDS011;8605;52.548;4.918;2024-01-30T09:34:05;34.58;;;8.93;;
16977;SDS011;8605;52.548;4.918;2024-01-30T09:36:33;35.08;;;8.25;;
16977;SDS011;8605;52.548;4.918;2024-01-30T09:39:03;35.22;;;7.97;;
16977;SDS011;8605;52.548;4.918;2024-01-30T09:41:32;27.67;;;7.78;;
16977;SDS011;8605;52.548;4.918;2024-01-30T09:44:03;30.48;;;6.90;;
16977;SDS011;8605;52.548;4.918;2024-01-30T09:46:33;32.95;;;6.78;;
16977;SDS011;8605;52.548;4.918;2024-01-30T09:49:02;27.05;;;5.00;;
16977;SDS011;8605;52.548;4.918;2024-01-30T09:51:32;28.45;;;4.57;;
16977;SDS011;8605;52.548;4.918;2024-01-30T09:54:03;26.40;;;3.75;;
16977;SDS011;8605;52.548;4.918;2024-01-30T09:56:31;23.33;;;3.40;;
16977;SDS011;8605;52.548;4.918;2024-01-30T09:59:01;23.80;;;3.83;;
16977;SDS011;8605;52.548;4.918;2024-01-30T10:01:29;22.20;;;3.80;;
16977;SDS011;8605;52.548;4.918;2024-01-30T10:04:01;24.23;;;3.80;;
16977;SDS011;8605;52.548;4.918;2024-01-30T10:06:32;16.88;;;3.00;;
16977;SDS011;8605;52.548;4.918;2024-01-30T10:09:00;25.30;;;3.15;;
16977;SDS011;8605;52.548;4.918;2024-01-30T10:11:28;22.58;;;3.45;;
16977;SDS011;8605;52.548;4.918;2024-01-30T10:13:56;17.73;;;3.08;;
16977;SDS011;8605;52.548;4.918;2024-01-30T10:16:24;20.92;;;4.00;;
16977;SDS011;8605;52.548;4.918;2024-01-30T10:18:52;21.85;;;3.58;;
16977;SDS011;8605;52.548;4.918;2024-01-30T10:21:20;27.77;;;3.75;;
16977;SDS011;8605;52.548;4.918;2024-01-30T10:23:49;24.42;;;3.58;;
16977;SDS011;8605;52.548;4.918;2024-01-30T10:26:17;25.20;;;3.50;;
16977;SDS011;8605;52.548;4.918;2024-01-30T10:28:45;21.23;;;3.65;;
16977;SDS011;8605;52.548;4.918;2024-01-30T10:31:16;28.52;;;3.65;;
16977;SDS011;8605;52.548;4.918;2024-01-30T10:33:44;24.02;;;4.32;;
16977;SDS011;8605;52.548;4.918;2024-01-30T10:36:13;24.10;;;4.32;;
16977;SDS011;8605;52.548;4.918;2024-01-30T10:38:46;18.65;;;4.03;;
16977;SDS011;8605;52.548;4.918;2024-01-30T10:41:24;20.73;;;3.72;;
16977;SDS011;8605;52.548;4.918;2024-01-30T10:43:56;21.20;;;3.75;;
16977;SDS011;8605;52.548;4.918;2024-01-30T10:46:30;17.65;;;3.20;;
16977;SDS011;8605;52.548;4.918;2024-01-30T10:49:02;15.77;;;3.00;;
16977;SDS011;8605;52.548;4.918;2024-01-30T10:51:32;13.55;;;2.70;;
16977;SDS011;8605;52.548;4.918;2024-01-30T10:54:03;13.88;;;2.67;;
16977;SDS011;8605;52.548;4.918;2024-01-30T10:56:32;10.18;;;2.20;;
16977;SDS011;8605;52.548;4.918;2024-01-30T10:59:02;10.32;;;2.72;;
16977;SDS011;8605;52.548;4.918;2024-01-30T11:01:33;9.57;;;2.30;;
16977;SDS011;8605;52.548;4.918;2024-01-30T11:04:03;12.73;;;2.50;;
16977;SDS011;8605;52.548;4.918;2024-01-30T11:06:31;16.85;;;2.50;;
16977;SDS011;8605;52.548;4.918;2024-01-30T11:09:00;12.82;;;2.45;;
16977;SDS011;8605;52.548;4.918;2024-01-30T11:11:32;13.98;;;2.72;;
16977;SDS011;8605;52.548;4.918;2024-01-30T11:14:00;14.85;;;2.42;;
16977;SDS011;8605;52.548;4.918;2024-01-30T11:16:30;10.60;;;2.13;;
16977;SDS011;8605;52.548;4.918;2024-01-30T11:19:02;9.07;;;1.83;;
16977;SDS011;8605;52.548;4.918;2024-01-30T11:21:30;12.73;;;2.42;;
16977;SDS011;8605;52.548;4.918;2024-01-30T11:23:57;12.80;;;2.30;;
16977;SDS011;8605;52.548;4.918;2024-01-30T11:26:27;13.20;;;2.40;;
16977;SDS011;8605;52.548;4.918;2024-01-30T11:28:57;16.80;;;2.92;;
16977;SDS011;8605;52.548;4.918;2024-01-30T11:31:25;19.05;;;3.03;;
16977;SDS011;8605;52.548;4.918;2024-01-30T11:33:53;20.83;;;2.97;;
16977;SDS011;8605;52.548;4.918;2024-01-30T11:36:21;15.43;;;2.70;;
16977;SDS011;8605;52.548;4.918;2024-01-30T11:38:53;19.60;;;2.23;;
16977;SDS011;8605;52.548;4.918;2024-01-30T11:41:22;17.02;;;2.60;;
16977;SDS011;8605;52.548;4.918;2024-01-30T11:43:51;18.08;;;2.90;;
16977;SDS011;8605;52.548;4.918;2024-01-30T11:46:22;25.42;;;4.70;;
16977;SDS011;8605;52.548;4.918;2024-01-30T11:48:52;18.75;;;3.28;;
16977;SDS011;8605;52.548;4.918;2024-01-30T11:51:20;16.50;;;2.90;;
16977;SDS011;8605;52.548;4.918;2024-01-30T11:53:49;20.67;;;2.73;;
16977;SDS011;8605;52.548;4.918;2024-01-30T11:56:17;21.00;;;3.13;;
16977;SDS011;8605;52.548;4.918;2024-01-30T11:58:46;14.73;;;2.50;;
16977;SDS011;8605;52.548;4.918;2024-01-30T12:01:14;20.10;;;2.92;;
16977;SDS011;8605;52.548;4.918;2024-01-30T12:03:50;16.73;;;2.63;;
16977;SDS011;8605;52.548;4.918;2024-01-30T12:06:18;25.08;;;3.10;;
16977;SDS011;8605;52.548;4.918;2024-01-30T12:08:55;25.52;;;3.55;;
16977;SDS011;8605;52.548;4.918;2024-01-30T12:11:24;15.20;;;2.77;;
16977;SDS011;8605;52.548;4.918;2024-01-30T12:13:52;26.10;;;3.20;;
16977;SDS011;8605;52.548;4.918;2024-01-30T12:16:20;17.33;;;3.28;;
16977;SDS011;8605;52.548;4.918;2024-01-30T12:18:58;23.23;;;3.40;;
16977;SDS011;8605;52.548;4.918;2024-01-30T12:21:27;18.27;;;2.60;;
16977;SDS011;8605;52.548;4.918;2024-01-30T12:23:56;18.60;;;3.03;;
16977;SDS011;8605;52.548;4.918;2024-01-30T12:26:24;15.57;;;3.07;;
16977;SDS011;8605;52.548;4.918;2024-01-30T12:28:54;18.48;;;2.70;;
16977;SDS011;8605;52.548;4.918;2024-01-30T12:31:25;21.27;;;3.08;;
16977;SDS011;8605;52.548;4.918;2024-01-30T12:33:55;20.98;;;3.95;;
16977;SDS011;8605;52.548;4.918;2024-01-30T12:36:24;18.90;;;3.67;;
16977;SDS011;8605;52.548;4.918;2024-01-30T12:38:53;19.13;;;3.20;;
16977;SDS011;8605;52.548;4.918;2024-01-30T12:41:21;22.83;;;3.70;;
16977;SDS011;8605;52.548;4.918;2024-01-30T12:43:54;19.77;;;3.53;;
16977;SDS011;8605;52.548;4.918;2024-01-30T12:46:25;21.73;;;3.80;;
16977;SDS011;8605;52.548;4.918;2024-01-30T12:48:56;26.93;;;4.03;;
16977;SDS011;8605;52.548;4.918;2024-01-30T12:51:24;24.00;;;5.47;;
16977;SDS011;8605;52.548;4.918;2024-01-30T12:53:51;15.20;;;3.38;;
16977;SDS011;8605;52.548;4.918;2024-01-30T12:56:19;21.93;;;4.37;;
16977;SDS011;8605;52.548;4.918;2024-01-30T12:58:47;18.38;;;4.03;;
16977;SDS011;8605;52.548;4.918;2024-01-30T13:01:19;24.63;;;3.92;;
16977;SDS011;8605;52.548;4.918;2024-01-30T13:03:47;25.00;;;4.30;;
16977;SDS011;8605;52.548;4.918;2024-01-30T13:06:18;22.43;;;3.67;;
16977;SDS011;8605;52.548;4.918;2024-01-30T13:08:46;12.32;;;3.10;;
16977;SDS011;8605;52.548;4.918;2024-01-30T13:11:13;18.55;;;3.25;;
16977;SDS011;8605;52.548;4.918;2024-01-30T13:13:47;12.90;;;3.20;;
16977;SDS011;8605;52.548;4.918;2024-01-30T13:16:15;16.90;;;3.00;;
16977;SDS011;8605;52.548;4.918;2024-01-30T13:18:43;15.27;;;3.57;;
16977;SDS011;8605;52.548;4.918;2024-01-30T13:21:14;15.20;;;2.53;;
16977;SDS011;8605;52.548;4.918;2024-01-30T13:23:43;13.88;;;2.90;;
16977;SDS011;8605;52.548;4.918;2024-01-30T13:26:11;13.50;;;2.90;;
16977;SDS011;8605;52.548;4.918;2024-01-30T13:28:38;14.50;;;3.47;;
16977;SDS011;8605;52.548;4.918;2024-01-30T13:31:06;11.82;;;3.13;;
16977;SDS011;8605;52.548;4.918;2024-01-30T13:33:34;7.70;;;2.83;;
16977;SDS011;8605;52.548;4.918;2024-01-30T13:36:02;11.80;;;3.40;;
16977;SDS011;8605;52.548;4.918;2024-01-30T13:38:30;12.90;;;3.35;;
16977;SDS011;8605;52.548;4.918;2024-01-30T13:41:00;13.98;;;3.97;;
16977;SDS011;8605;52.548;4.918;2024-01-30T13:43:28;15.85;;;3.85;;
16977;SDS011;8605;52.548;4.918;2024-01-30T13:45:56;15.50;;;3.80;;
16977;SDS011;8605;52.548;4.918;2024-01-30T13:48:27;16.07;;;4.43;;
16977;SDS011;8605;52.548;4.918;2024-01-30T13:50:56;16.25;;;4.57;;
16977;SDS011;8605;52.548;4.918;2024-01-30T13:53:24;17.50;;;4.47;;
16977;SDS011;8605;52.548;4.918;2024-01-30T13:55:53;13.90;;;5.27;;
16977;SDS011;8605;52.548;4.918;2024-01-30T13:58:22;16.50;;;5.40;;
16977;SDS011;8605;52.548;4.918;2024-01-30T14:00:50;13.07;;;5.63;;
16977;SDS011;8605;52.548;4.918;2024-01-30T14:03:18;18.27;;;6.67;;
16977;SDS011;8605;52.548;4.918;2024-01-30T14:05:46;17.37;;;6.90;;
16977;SDS011;8605;52.548;4.918;2024-01-30T14:08:14;21.23;;;7.83;;
16977;SDS011;8605;52.548;4.918;2024-01-30T14:10:43;19.50;;;8.97;;
16977;SDS011;8605;52.548;4.918;2024-01-30T14:13:10;20.23;;;7.43;;
16977;SDS011;8605;52.548;4.918;2024-01-30T14:15:40;22.97;;;8.10;;
16977;SDS011;8605;52.548;4.918;2024-01-30T14:18:07;20.93;;;7.73;;
16977;SDS011;8605;52.548;4.918;2024-01-30T14:20:37;25.67;;;8.73;;
16977;SDS011;8605;52.548;4.918;2024-01-30T14:23:05;23.67;;;8.80;;
16977;SDS011;8605;52.548;4.918;2024-01-30T14:25:36;25.93;;;9.97;;
16977;SDS011;8605;52.548;4.918;2024-01-30T14:28:04;30.47;;;9.37;;
16977;SDS011;8605;52.548;4.918;2024-01-30T14:30:33;26.03;;;9.23;;
16977;SDS011;8605;52.548;4.918;2024-01-30T14:33:05;25.63;;;9.57;;
16977;SDS011;8605;52.548;4.918;2024-01-30T14:35:33;26.47;;;10.10;;
16977;SDS011;8605;52.548;4.918;2024-01-30T14:38:01;25.07;;;10.10;;
16977;SDS011;8605;52.548;4.918;2024-01-30T14:40:38;31.63;;;9.37;;
16977;SDS011;8605;52.548;4.918;2024-01-30T14:43:06;28.00;;;9.50;;
16977;SDS011;8605;52.548;4.918;2024-01-30T14:45:34;32.50;;;9.73;;
16977;SDS011;8605;52.548;4.918;2024-01-30T14:48:02;30.90;;;10.83;;
16977;SDS011;8605;52.548;4.918;2024-01-30T14:50:31;31.83;;;11.10;;